sensor_id;sensor_type;location;lat;lon;timestamp;pressure;altitude;pressure_sealevel;temperature;humidity
40570;BME280;26270;34.428;-119.710;2023-02-16T00:00:53;101863.16;;;16.86;25.51
40570;BME280;26270;34.428;-119.710;2023-02-16T00:03:22;101864.76;;;16.88;26.03
40570;BME280;26270;34.428;-119.710;2023-02-16T00:05:51;101870.69;;;16.79;26.32
40570;BME280;26270;34.428;-119.710;2023-02-16T00:08:18;101872.89;;;16.75;25.40
40570;BME280;26270;34.428;-119.710;2023-02-16T00:10:47;101873.46;;;16.69;25.22
40570;BME280;26270;34.428;-119.710;2023-02-16T00:13:20;101873.22;;;16.63;25.61
40570;BME280;26270;34.428;-119.710;2023-02-16T00:15:50;101869.52;;;16.74;24.34
40570;BME280;26270;34.428;-119.710;2023-02-16T00:18:21;101870.41;;;16.63;24.84
40570;BME280;26270;34.428;-119.710;2023-02-16T00:20:49;101877.68;;;16.65;23.01
40570;BME280;26270;34.428;-119.710;2023-02-16T00:23:18;101875.86;;;16.68;22.89
40570;BME280;26270;34.428;-119.710;2023-02-16T00:25:46;101870.29;;;16.68;22.74
40570;BME280;26270;34.428;-119.710;2023-02-16T00:28:16;101865.44;;;16.62;22.08
40570;BME280;26270;34.428;-119.710;2023-02-16T00:30:46;101868.68;;;16.81;22.37
40570;BME280;26270;34.428;-119.710;2023-02-16T00:33:16;101872.89;;;16.63;22.13
40570;BME280;26270;34.428;-119.710;2023-02-16T00:35:46;101874.05;;;16.55;21.56
40570;BME280;26270;34.428;-119.710;2023-02-16T00:38:14;101876.78;;;16.76;21.90
40570;BME280;26270;34.428;-119.710;2023-02-16T00:40:42;101876.76;;;16.78;22.46
40570;BME280;26270;34.428;-119.710;2023-02-16T00:43:21;101882.85;;;16.69;25.12
40570;BME280;26270;34.428;-119.710;2023-02-16T00:45:51;101887.98;;;16.47;24.68
40570;BME280;26270;34.428;-119.710;2023-02-16T00:48:20;101890.39;;;16.25;25.78
40570;BME280;26270;34.428;-119.710;2023-02-16T00:50:49;101894.47;;;16.22;26.38
40570;BME280;26270;34.428;-119.710;2023-02-16T00:53:17;101895.33;;;16.17;26.44
40570;BME280;26270;34.428;-119.710;2023-02-16T00:55:46;101899.09;;;15.86;26.98
40570;BME280;26270;34.428;-119.710;2023-02-16T00:58:19;101900.44;;;15.67;28.02
40570;BME280;26270;34.428;-119.710;2023-02-16T01:00:51;101904.31;;;15.71;28.76
40570;BME280;26270;34.428;-119.710;2023-02-16T01:03:24;101910.02;;;15.52;29.11
40570;BME280;26270;34.428;-119.710;2023-02-16T01:05:52;101913.07;;;15.32;29.66
40570;BME280;26270;34.428;-119.710;2023-02-16T01:08:21;101913.30;;;15.08;29.41
40570;BME280;26270;34.428;-119.710;2023-02-16T01:10:49;101918.36;;;14.82;29.96
40570;BME280;26270;34.428;-119.710;2023-02-16T01:13:18;101920.84;;;14.91;29.88
40570;BME280;26270;34.428;-119.710;2023-02-16T01:15:46;101919.27;;;14.70;30.37
40570;BME280;26270;34.428;-119.710;2023-02-16T01:18:15;101923.81;;;14.83;30.66
40570;BME280;26270;34.428;-119.710;2023-02-16T01:20:44;101927.54;;;14.73;30.85
40570;BME280;26270;34.428;-119.710;2023-02-16T01:23:12;101934.04;;;14.70;31.56
40570;BME280;26270;34.428;-119.710;2023-02-16T01:25:41;101933.04;;;14.46;31.62
40570;BME280;26270;34.428;-119.710;2023-02-16T01:28:17;101932.99;;;14.44;31.30
40570;BME280;26270;34.428;-119.710;2023-02-16T01:30:45;101932.42;;;14.34;30.45
40570;BME280;26270;34.428;-119.710;2023-02-16T01:33:14;101933.33;;;14.28;29.70
40570;BME280;26270;34.428;-119.710;2023-02-16T01:35:43;101940.01;;;14.29;29.81
40570;BME280;26270;34.428;-119.710;2023-02-16T01:38:17;101943.70;;;14.17;29.40
40570;BME280;26270;34.428;-119.710;2023-02-16T01:40:53;101947.41;;;14.26;29.49
40570;BME280;26270;34.428;-119.710;2023-02-16T01:43:27;101950.26;;;13.94;30.01
40570;BME280;26270;34.428;-119.710;2023-02-16T01:46:02;101952.14;;;13.98;30.44
40570;BME280;26270;34.428;-119.710;2023-02-16T01:48:32;101958.31;;;13.89;30.01
40570;BME280;26270;34.428;-119.710;2023-02-16T01:51:05;101962.15;;;13.81;30.33
40570;BME280;26270;34.428;-119.710;2023-02-16T01:53:40;101965.37;;;13.91;30.18
40570;BME280;26270;34.428;-119.710;2023-02-16T01:56:20;101969.63;;;13.80;31.14
40570;BME280;26270;34.428;-119.710;2023-02-16T01:58:54;101973.74;;;13.81;30.84
40570;BME280;26270;34.428;-119.710;2023-02-16T02:01:57;101972.03;;;13.53;31.13
40570;BME280;26270;34.428;-119.710;2023-02-16T02:04:33;101977.07;;;13.52;31.67
40570;BME280;26270;34.428;-119.710;2023-02-16T02:07:02;101985.50;;;13.30;32.38
40570;BME280;26270;34.428;-119.710;2023-02-16T02:09:36;101990.08;;;13.13;32.69
40570;BME280;26270;34.428;-119.710;2023-02-16T02:12:13;101993.00;;;13.08;33.21
40570;BME280;26270;34.428;-119.710;2023-02-16T02:14:43;101995.82;;;13.04;33.07
40570;BME280;26270;34.428;-119.710;2023-02-16T02:17:13;101996.71;;;12.94;33.39
40570;BME280;26270;34.428;-119.710;2023-02-16T02:19:49;101995.26;;;12.83;33.49
40570;BME280;26270;34.428;-119.710;2023-02-16T02:22:46;101996.14;;;12.70;33.40
40570;BME280;26270;34.428;-119.710;2023-02-16T02:25:34;101999.90;;;12.69;33.39
40570;BME280;26270;34.428;-119.710;2023-02-16T02:28:15;102004.41;;;12.72;33.61
40570;BME280;26270;34.428;-119.710;2023-02-16T02:30:50;102011.48;;;12.45;34.19
40570;BME280;26270;34.428;-119.710;2023-02-16T02:33:33;102014.94;;;12.40;33.94
40570;BME280;26270;34.428;-119.710;2023-02-16T02:36:15;102015.94;;;12.46;34.05
40570;BME280;26270;34.428;-119.710;2023-02-16T02:38:54;102010.63;;;12.28;34.90
40570;BME280;26270;34.428;-119.710;2023-02-16T02:41:29;102011.66;;;12.22;34.59
40570;BME280;26270;34.428;-119.710;2023-02-16T02:44:02;102011.39;;;12.22;34.81
40570;BME280;26270;34.428;-119.710;2023-02-16T02:46:34;102019.89;;;12.08;34.99
40570;BME280;26270;34.428;-119.710;2023-02-16T02:49:02;102020.66;;;12.15;34.94
40570;BME280;26270;34.428;-119.710;2023-02-16T02:51:31;102022.06;;;12.11;34.35
40570;BME280;26270;34.428;-119.710;2023-02-16T02:54:02;102021.73;;;11.86;34.59
40570;BME280;26270;34.428;-119.710;2023-02-16T02:56:33;102025.90;;;11.87;35.38
40570;BME280;26270;34.428;-119.710;2023-02-16T02:59:05;102032.48;;;11.62;35.53
40570;BME280;26270;34.428;-119.710;2023-02-16T03:01:36;102038.95;;;11.51;35.73
40570;BME280;26270;34.428;-119.710;2023-02-16T03:04:07;102042.85;;;11.39;35.63
40570;BME280;26270;34.428;-119.710;2023-02-16T03:06:41;102039.64;;;11.59;36.00
40570;BME280;26270;34.428;-119.710;2023-02-16T03:09:13;102040.67;;;11.56;35.78
40570;BME280;26270;34.428;-119.710;2023-02-16T03:11:42;102039.60;;;11.46;35.94
40570;BME280;26270;34.428;-119.710;2023-02-16T03:14:15;102040.65;;;11.48;36.29
40570;BME280;26270;34.428;-119.710;2023-02-16T03:16:46;102043.48;;;11.46;36.56
40570;BME280;26270;34.428;-119.710;2023-02-16T03:19:17;102048.52;;;11.45;36.71
40570;BME280;26270;34.428;-119.710;2023-02-16T03:21:45;102052.24;;;11.18;36.71
40570;BME280;26270;34.428;-119.710;2023-02-16T03:24:18;102051.36;;;11.19;36.81
40570;BME280;26270;34.428;-119.710;2023-02-16T03:26:48;102052.20;;;11.07;36.61
40570;BME280;26270;34.428;-119.710;2023-02-16T03:29:17;102055.74;;;11.22;36.56
40570;BME280;26270;34.428;-119.710;2023-02-16T03:31:47;102057.27;;;11.19;36.47
40570;BME280;26270;34.428;-119.710;2023-02-16T03:34:17;102057.02;;;11.31;36.14
40570;BME280;26270;34.428;-119.710;2023-02-16T03:36:49;102058.50;;;11.20;36.18
40570;BME280;26270;34.428;-119.710;2023-02-16T03:39:19;102055.60;;;11.04;35.95
40570;BME280;26270;34.428;-119.710;2023-02-16T03:41:49;102053.32;;;11.18;35.80
40570;BME280;26270;34.428;-119.710;2023-02-16T03:44:19;102049.12;;;11.12;35.88
40570;BME280;26270;34.428;-119.710;2023-02-16T03:46:48;102053.66;;;10.95;36.74
40570;BME280;26270;34.428;-119.710;2023-02-16T03:49:16;102052.86;;;11.06;36.33
40570;BME280;26270;34.428;-119.710;2023-02-16T03:51:45;102051.19;;;10.99;36.00
40570;BME280;26270;34.428;-119.710;2023-02-16T03:54:13;102053.46;;;10.87;36.42
40570;BME280;26270;34.428;-119.710;2023-02-16T03:56:41;102054.07;;;10.77;35.75
40570;BME280;26270;34.428;-119.710;2023-02-16T03:59:09;102054.14;;;10.73;36.23
40570;BME280;26270;34.428;-119.710;2023-02-16T04:01:37;102054.26;;;10.87;35.79
40570;BME280;26270;34.428;-119.710;2023-02-16T04:04:04;102051.83;;;10.90;36.04
40570;BME280;26270;34.428;-119.710;2023-02-16T04:06:33;102055.52;;;10.63;36.70
40570;BME280;26270;34.428;-119.710;2023-02-16T04:09:01;102056.60;;;10.77;37.11
40570;BME280;26270;34.428;-119.710;2023-02-16T04:11:29;102059.95;;;10.65;37.38
40570;BME280;26270;34.428;-119.710;2023-02-16T04:13:57;102059.83;;;10.68;37.20
40570;BME280;26270;34.428;-119.710;2023-02-16T04:16:25;102061.07;;;10.57;37.05
40570;BME280;26270;34.428;-119.710;2023-02-16T04:18:53;102065.60;;;10.64;36.94
40570;BME280;26270;34.428;-119.710;2023-02-16T04:21:21;102065.71;;;10.73;36.61
40570;BME280;26270;34.428;-119.710;2023-02-16T04:23:49;102069.87;;;10.62;36.86
40570;BME280;26270;34.428;-119.710;2023-02-16T04:26:17;102068.84;;;10.35;36.10
40570;BME280;26270;34.428;-119.710;2023-02-16T04:28:44;102069.13;;;10.47;36.08
40570;BME280;26270;34.428;-119.710;2023-02-16T04:31:12;102067.20;;;10.47;35.86
40570;BME280;26270;34.428;-119.710;2023-02-16T04:33:45;102071.84;;;10.37;36.22
40570;BME280;26270;34.428;-119.710;2023-02-16T04:36:13;102073.05;;;10.38;36.01
40570;BME280;26270;34.428;-119.710;2023-02-16T04:38:41;102074.68;;;10.37;35.90
40570;BME280;26270;34.428;-119.710;2023-02-16T04:41:09;102080.09;;;10.20;36.07
40570;BME280;26270;34.428;-119.710;2023-02-16T04:43:37;102081.17;;;10.33;35.94
40570;BME280;26270;34.428;-119.710;2023-02-16T04:46:04;102079.46;;;10.11;36.32
40570;BME280;26270;34.428;-119.710;2023-02-16T04:48:32;102077.23;;;10.13;36.24
40570;BME280;26270;34.428;-119.710;2023-02-16T04:51:03;102075.79;;;10.20;36.15
40570;BME280;26270;34.428;-119.710;2023-02-16T04:53:31;102077.98;;;10.26;36.23
40570;BME280;26270;34.428;-119.710;2023-02-16T04:55:58;102077.57;;;10.11;36.09
40570;BME280;26270;34.428;-119.710;2023-02-16T04:58:26;102082.08;;;10.10;35.60
40570;BME280;26270;34.428;-119.710;2023-02-16T05:03:19;102087.69;;;10.12;35.26
40570;BME280;26270;34.428;-119.710;2023-02-16T05:05:47;102087.42;;;9.98;34.86
40570;BME280;26270;34.428;-119.710;2023-02-16T05:08:15;102086.73;;;10.14;34.65
40570;BME280;26270;34.428;-119.710;2023-02-16T05:10:43;102084.47;;;9.82;34.42
40570;BME280;26270;34.428;-119.710;2023-02-16T05:13:11;102083.22;;;9.94;34.21
40570;BME280;26270;34.428;-119.710;2023-02-16T05:15:39;102080.71;;;10.11;33.99
40570;BME280;26270;34.428;-119.710;2023-02-16T05:18:07;102084.39;;;10.18;33.67
40570;BME280;26270;34.428;-119.710;2023-02-16T05:20:35;102080.72;;;10.09;33.59
40570;BME280;26270;34.428;-119.710;2023-02-16T05:23:02;102076.80;;;10.03;34.29
40570;BME280;26270;34.428;-119.710;2023-02-16T05:25:30;102083.25;;;10.12;34.36
40570;BME280;26270;34.428;-119.710;2023-02-16T05:27:59;102084.18;;;10.13;34.38
40570;BME280;26270;34.428;-119.710;2023-02-16T05:30:27;102092.07;;;10.12;35.24
40570;BME280;26270;34.428;-119.710;2023-02-16T05:32:55;102094.55;;;10.06;35.61
40570;BME280;26270;34.428;-119.710;2023-02-16T05:35:24;102094.95;;;10.05;35.51
40570;BME280;26270;34.428;-119.710;2023-02-16T05:37:53;102094.59;;;9.79;36.12
40570;BME280;26270;34.428;-119.710;2023-02-16T05:40:21;102098.04;;;9.89;36.34
40570;BME280;26270;34.428;-119.710;2023-02-16T05:42:52;102097.97;;;9.75;36.36
40570;BME280;26270;34.428;-119.710;2023-02-16T05:45:21;102098.32;;;9.76;36.40
40570;BME280;26270;34.428;-119.710;2023-02-16T05:47:49;102093.40;;;9.83;36.61
40570;BME280;26270;34.428;-119.710;2023-02-16T05:50:17;102092.41;;;9.66;36.48
40570;BME280;26270;34.428;-119.710;2023-02-16T05:52:45;102091.73;;;9.68;37.11
40570;BME280;26270;34.428;-119.710;2023-02-16T05:55:12;102094.51;;;9.45;36.87
40570;BME280;26270;34.428;-119.710;2023-02-16T05:57:40;102099.28;;;9.51;37.55
40570;BME280;26270;34.428;-119.710;2023-02-16T06:00:09;102100.25;;;9.66;37.25
40570;BME280;26270;34.428;-119.710;2023-02-16T06:02:38;102104.97;;;9.62;37.38
40570;BME280;26270;34.428;-119.710;2023-02-16T06:05:06;102108.01;;;9.44;37.74
40570;BME280;26270;34.428;-119.710;2023-02-16T06:07:34;102104.63;;;9.45;38.03
40570;BME280;26270;34.428;-119.710;2023-02-16T06:10:02;102107.89;;;9.32;38.72
40570;BME280;26270;34.428;-119.710;2023-02-16T06:12:31;102108.77;;;9.28;38.76
40570;BME280;26270;34.428;-119.710;2023-02-16T06:15:00;102110.87;;;9.23;38.75
40570;BME280;26270;34.428;-119.710;2023-02-16T06:17:28;102108.69;;;9.33;39.10
40570;BME280;26270;34.428;-119.710;2023-02-16T06:19:56;102112.15;;;9.35;39.16
40570;BME280;26270;34.428;-119.710;2023-02-16T06:22:24;102116.00;;;9.27;39.04
40570;BME280;26270;34.428;-119.710;2023-02-16T06:24:52;102119.32;;;9.11;39.14
40570;BME280;26270;34.428;-119.710;2023-02-16T06:27:20;102118.05;;;9.34;39.29
40570;BME280;26270;34.428;-119.710;2023-02-16T06:29:48;102114.61;;;9.30;39.26
40570;BME280;26270;34.428;-119.710;2023-02-16T06:32:16;102112.08;;;9.16;39.18
40570;BME280;26270;34.428;-119.710;2023-02-16T06:34:45;102111.68;;;9.09;39.51
40570;BME280;26270;34.428;-119.710;2023-02-16T06:37:13;102118.94;;;9.04;39.76
40570;BME280;26270;34.428;-119.710;2023-02-16T06:39:42;102120.28;;;8.95;40.08
40570;BME280;26270;34.428;-119.710;2023-02-16T06:42:10;102121.99;;;8.86;40.18
40570;BME280;26270;34.428;-119.710;2023-02-16T06:44:38;102122.79;;;8.96;40.66
40570;BME280;26270;34.428;-119.710;2023-02-16T06:47:06;102121.30;;;8.90;40.66
40570;BME280;26270;34.428;-119.710;2023-02-16T06:49:34;102119.87;;;8.84;40.62
40570;BME280;26270;34.428;-119.710;2023-02-16T06:52:02;102121.03;;;8.77;40.70
40570;BME280;26270;34.428;-119.710;2023-02-16T06:54:31;102124.23;;;8.89;40.78
40570;BME280;26270;34.428;-119.710;2023-02-16T06:56:59;102131.79;;;8.74;41.17
40570;BME280;26270;34.428;-119.710;2023-02-16T06:59:27;102137.39;;;8.70;41.22
40570;BME280;26270;34.428;-119.710;2023-02-16T07:01:55;102137.61;;;8.51;41.69
40570;BME280;26270;34.428;-119.710;2023-02-16T07:04:24;102139.89;;;8.65;41.48
40570;BME280;26270;34.428;-119.710;2023-02-16T07:06:52;102141.79;;;8.65;41.48
40570;BME280;26270;34.428;-119.710;2023-02-16T07:09:20;102142.94;;;8.69;41.49
40570;BME280;26270;34.428;-119.710;2023-02-16T07:11:48;102141.91;;;8.80;41.61
40570;BME280;26270;34.428;-119.710;2023-02-16T07:14:16;102145.45;;;8.63;41.96
40570;BME280;26270;34.428;-119.710;2023-02-16T07:16:44;102147.58;;;8.61;42.03
40570;BME280;26270;34.428;-119.710;2023-02-16T07:19:13;102150.51;;;8.66;42.21
40570;BME280;26270;34.428;-119.710;2023-02-16T07:21:41;102146.41;;;8.52;42.48
40570;BME280;26270;34.428;-119.710;2023-02-16T07:24:09;102150.01;;;8.47;43.00
40570;BME280;26270;34.428;-119.710;2023-02-16T07:26:37;102150.72;;;8.50;43.07
40570;BME280;26270;34.428;-119.710;2023-02-16T07:29:05;102152.44;;;8.54;42.77
40570;BME280;26270;34.428;-119.710;2023-02-16T07:31:33;102154.23;;;8.40;42.96
40570;BME280;26270;34.428;-119.710;2023-02-16T07:34:01;102149.74;;;8.39;42.98
40570;BME280;26270;34.428;-119.710;2023-02-16T07:36:29;102145.44;;;8.16;43.84
40570;BME280;26270;34.428;-119.710;2023-02-16T07:38:57;102147.86;;;7.97;43.69
40570;BME280;26270;34.428;-119.710;2023-02-16T07:41:25;102148.00;;;8.23;43.04
40570;BME280;26270;34.428;-119.710;2023-02-16T07:43:53;102153.31;;;8.09;42.90
40570;BME280;26270;34.428;-119.710;2023-02-16T07:46:21;102154.80;;;7.86;43.26
40570;BME280;26270;34.428;-119.710;2023-02-16T07:48:51;102151.58;;;7.72;44.18
40570;BME280;26270;34.428;-119.710;2023-02-16T07:51:21;102146.60;;;7.88;44.01
40570;BME280;26270;34.428;-119.710;2023-02-16T07:53:50;102147.27;;;7.85;43.70
40570;BME280;26270;34.428;-119.710;2023-02-16T07:56:20;102145.07;;;7.88;43.45
40570;BME280;26270;34.428;-119.710;2023-02-16T07:58:50;102142.31;;;8.10;43.39
40570;BME280;26270;34.428;-119.710;2023-02-16T08:01:19;102140.98;;;7.84;42.99
40570;BME280;26270;34.428;-119.710;2023-02-16T08:03:47;102144.41;;;7.81;43.26
40570;BME280;26270;34.428;-119.710;2023-02-16T08:06:16;102139.77;;;8.00;43.20
40570;BME280;26270;34.428;-119.710;2023-02-16T08:08:45;102136.60;;;7.94;43.09
40570;BME280;26270;34.428;-119.710;2023-02-16T08:11:15;102138.24;;;7.89;43.26
40570;BME280;26270;34.428;-119.710;2023-02-16T08:13:44;102136.92;;;7.72;43.49
40570;BME280;26270;34.428;-119.710;2023-02-16T08:16:14;102137.72;;;7.76;43.82
40570;BME280;26270;34.428;-119.710;2023-02-16T08:18:43;102140.15;;;7.68;43.57
40570;BME280;26270;34.428;-119.710;2023-02-16T08:21:13;102137.81;;;7.50;43.89
40570;BME280;26270;34.428;-119.710;2023-02-16T08:23:42;102135.45;;;7.53;43.58
40570;BME280;26270;34.428;-119.710;2023-02-16T08:26:11;102133.84;;;7.84;43.22
40570;BME280;26270;34.428;-119.710;2023-02-16T08:28:39;102132.75;;;7.84;43.07
40570;BME280;26270;34.428;-119.710;2023-02-16T08:31:07;102130.58;;;7.56;43.31
40570;BME280;26270;34.428;-119.710;2023-02-16T08:33:35;102131.66;;;7.37;43.85
40570;BME280;26270;34.428;-119.710;2023-02-16T08:36:03;102132.45;;;7.41;43.53
40570;BME280;26270;34.428;-119.710;2023-02-16T08:38:31;102135.81;;;7.53;43.26
40570;BME280;26270;34.428;-119.710;2023-02-16T08:40:59;102140.39;;;7.69;43.11
40570;BME280;26270;34.428;-119.710;2023-02-16T08:43:27;102141.00;;;7.57;43.34
40570;BME280;26270;34.428;-119.710;2023-02-16T08:45:55;102144.56;;;7.59;43.44
40570;BME280;26270;34.428;-119.710;2023-02-16T08:48:22;102139.15;;;7.68;43.25
40570;BME280;26270;34.428;-119.710;2023-02-16T08:50:50;102139.93;;;7.70;43.31
40570;BME280;26270;34.428;-119.710;2023-02-16T08:53:18;102136.80;;;7.17;42.38
40570;BME280;26270;34.428;-119.710;2023-02-16T08:55:54;102137.21;;;7.42;41.52
40570;BME280;26270;34.428;-119.710;2023-02-16T08:58:23;102135.92;;;7.49;41.77
40570;BME280;26270;34.428;-119.710;2023-02-16T09:00:51;102132.75;;;7.34;42.04
40570;BME280;26270;34.428;-119.710;2023-02-16T09:03:20;102135.83;;;7.37;42.28
40570;BME280;26270;34.428;-119.710;2023-02-16T09:05:50;102141.55;;;7.36;42.23
40570;BME280;26270;34.428;-119.710;2023-02-16T09:08:19;102145.14;;;7.22;42.67
40570;BME280;26270;34.428;-119.710;2023-02-16T09:10:47;102147.66;;;7.29;42.49
40570;BME280;26270;34.428;-119.710;2023-02-16T09:13:15;102151.01;;;7.30;42.68
40570;BME280;26270;34.428;-119.710;2023-02-16T09:15:43;102152.46;;;7.41;42.79
40570;BME280;26270;34.428;-119.710;2023-02-16T09:18:12;102155.88;;;7.30;42.57
40570;BME280;26270;34.428;-119.710;2023-02-16T09:20:42;102154.26;;;7.24;42.75
40570;BME280;26270;34.428;-119.710;2023-02-16T09:23:10;102157.86;;;7.38;42.98
40570;BME280;26270;34.428;-119.710;2023-02-16T09:25:39;102163.40;;;7.24;42.85
40570;BME280;26270;34.428;-119.710;2023-02-16T09:28:07;102168.22;;;6.96;43.25
40570;BME280;26270;34.428;-119.710;2023-02-16T09:30:37;102169.66;;;6.83;43.32
40570;BME280;26270;34.428;-119.710;2023-02-16T09:33:05;102165.16;;;7.21;42.91
40570;BME280;26270;34.428;-119.710;2023-02-16T09:35:33;102166.44;;;7.14;42.55
40570;BME280;26270;34.428;-119.710;2023-02-16T09:38:01;102168.48;;;6.71;43.30
40570;BME280;26270;34.428;-119.710;2023-02-16T09:40:29;102169.35;;;6.89;43.57
40570;BME280;26270;34.428;-119.710;2023-02-16T09:43:05;102165.05;;;7.13;43.07
40570;BME280;26270;34.428;-119.710;2023-02-16T09:45:40;102163.92;;;6.78;43.91
40570;BME280;26270;34.428;-119.710;2023-02-16T09:48:18;102159.78;;;6.99;43.32
40570;BME280;26270;34.428;-119.710;2023-02-16T09:50:50;102152.95;;;7.16;43.28
40570;BME280;26270;34.428;-119.710;2023-02-16T09:53:23;102148.40;;;7.36;42.80
40570;BME280;26270;34.428;-119.710;2023-02-16T09:55:58;102139.37;;;7.07;43.25
40570;BME280;26270;34.428;-119.710;2023-02-16T09:58:38;102140.82;;;7.23;43.37
40570;BME280;26270;34.428;-119.710;2023-02-16T10:01:15;102140.18;;;7.24;43.80
40570;BME280;26270;34.428;-119.710;2023-02-16T10:03:52;102138.76;;;7.21;43.72
40570;BME280;26270;34.428;-119.710;2023-02-16T10:06:42;102129.75;;;7.14;44.31
40570;BME280;26270;34.428;-119.710;2023-02-16T10:09:14;102126.15;;;7.09;44.28
40570;BME280;26270;34.428;-119.710;2023-02-16T10:11:46;102122.01;;;7.13;44.41
40570;BME280;26270;34.428;-119.710;2023-02-16T10:14:25;102119.57;;;7.04;44.46
40570;BME280;26270;34.428;-119.710;2023-02-16T10:17:00;102117.07;;;7.13;44.72
40570;BME280;26270;34.428;-119.710;2023-02-16T10:19:36;102112.25;;;7.04;45.01
40570;BME280;26270;34.428;-119.710;2023-02-16T10:22:10;102109.22;;;7.01;44.61
40570;BME280;26270;34.428;-119.710;2023-02-16T10:24:44;102101.83;;;7.02;44.17
40570;BME280;26270;34.428;-119.710;2023-02-16T10:27:15;102097.20;;;6.87;44.29
40570;BME280;26270;34.428;-119.710;2023-02-16T10:29:43;102095.36;;;6.98;43.97
40570;BME280;26270;34.428;-119.710;2023-02-16T10:32:18;102099.33;;;6.98;44.01
40570;BME280;26270;34.428;-119.710;2023-02-16T10:34:58;102096.32;;;6.79;44.16
40570;BME280;26270;34.428;-119.710;2023-02-16T10:37:39;102104.31;;;6.80;44.67
40570;BME280;26270;34.428;-119.710;2023-02-16T10:40:19;102108.20;;;6.64;44.33
40570;BME280;26270;34.428;-119.710;2023-02-16T10:42:53;102111.43;;;6.80;44.79
40570;BME280;26270;34.428;-119.710;2023-02-16T10:45:28;102112.93;;;6.78;44.81
40570;BME280;26270;34.428;-119.710;2023-02-16T10:47:59;102114.04;;;6.83;44.92
40570;BME280;26270;34.428;-119.710;2023-02-16T10:50:30;102112.12;;;6.81;44.69
40570;BME280;26270;34.428;-119.710;2023-02-16T10:53:03;102112.21;;;6.81;44.35
40570;BME280;26270;34.428;-119.710;2023-02-16T10:55:33;102111.06;;;6.70;43.67
40570;BME280;26270;34.428;-119.710;2023-02-16T10:58:03;102113.04;;;6.41;44.26
40570;BME280;26270;34.428;-119.710;2023-02-16T11:00:46;102112.65;;;6.10;44.33
40570;BME280;26270;34.428;-119.710;2023-02-16T11:03:18;102107.86;;;6.22;44.56
40570;BME280;26270;34.428;-119.710;2023-02-16T11:05:50;102104.77;;;6.24;44.07
40570;BME280;26270;34.428;-119.710;2023-02-16T11:08:18;102105.22;;;6.51;43.87
40570;BME280;26270;34.428;-119.710;2023-02-16T11:10:48;102104.62;;;6.58;44.38
40570;BME280;26270;34.428;-119.710;2023-02-16T11:13:25;102104.81;;;6.53;44.53
40570;BME280;26270;34.428;-119.710;2023-02-16T11:15:55;102105.67;;;6.69;44.83
40570;BME280;26270;34.428;-119.710;2023-02-16T11:18:30;102102.88;;;6.69;44.94
40570;BME280;26270;34.428;-119.710;2023-02-16T11:21:00;102104.95;;;6.52;45.89
40570;BME280;26270;34.428;-119.710;2023-02-16T11:23:30;102103.41;;;6.51;45.84
40570;BME280;26270;34.428;-119.710;2023-02-16T11:26:01;102101.87;;;6.55;46.23
40570;BME280;26270;34.428;-119.710;2023-02-16T11:28:33;102100.22;;;6.41;46.50
40570;BME280;26270;34.428;-119.710;2023-02-16T11:31:12;102097.61;;;6.61;45.95
40570;BME280;26270;34.428;-119.710;2023-02-16T11:33:42;102096.11;;;6.63;45.79
40570;BME280;26270;34.428;-119.710;2023-02-16T11:36:26;102096.31;;;6.60;45.82
40570;BME280;26270;34.428;-119.710;2023-02-16T11:38:59;102096.41;;;6.51;45.76
40570;BME280;26270;34.428;-119.710;2023-02-16T11:41:28;102095.78;;;6.53;46.07
40570;BME280;26270;34.428;-119.710;2023-02-16T11:43:57;102096.31;;;6.46;46.17
40570;BME280;26270;34.428;-119.710;2023-02-16T11:46:26;102095.65;;;6.44;46.00
40570;BME280;26270;34.428;-119.710;2023-02-16T11:48:55;102093.68;;;6.60;46.22
40570;BME280;26270;34.428;-119.710;2023-02-16T11:51:33;102088.26;;;6.69;45.98
40570;BME280;26270;34.428;-119.710;2023-02-16T11:54:04;102086.25;;;6.59;46.28
40570;BME280;26270;34.428;-119.710;2023-02-16T11:56:33;102089.61;;;6.27;46.27
40570;BME280;26270;34.428;-119.710;2023-02-16T11:59:05;102090.86;;;6.48;45.87
40570;BME280;26270;34.428;-119.710;2023-02-16T12:01:58;102097.02;;;6.34;46.22
40570;BME280;26270;34.428;-119.710;2023-02-16T12:04:41;102095.03;;;6.39;46.42
40570;BME280;26270;34.428;-119.710;2023-02-16T12:07:20;102095.79;;;6.38;46.33
40570;BME280;26270;34.428;-119.710;2023-02-16T12:10:00;102091.48;;;6.46;46.03
40570;BME280;26270;34.428;-119.710;2023-02-16T12:12:37;102088.34;;;6.51;46.10
40570;BME280;26270;34.428;-119.710;2023-02-16T12:15:19;102089.71;;;6.60;46.13
40570;BME280;26270;34.428;-119.710;2023-02-16T12:17:58;102092.20;;;6.34;46.41
40570;BME280;26270;34.428;-119.710;2023-02-16T12:20:39;102092.45;;;6.37;46.76
40570;BME280;26270;34.428;-119.710;2023-02-16T12:23:21;102100.74;;;6.34;46.81
40570;BME280;26270;34.428;-119.710;2023-02-16T12:26:02;102096.27;;;6.28;47.17
40570;BME280;26270;34.428;-119.710;2023-02-16T12:28:38;102108.01;;;6.27;47.55
40570;BME280;26270;34.428;-119.710;2023-02-16T12:31:15;102108.57;;;6.29;46.99
40570;BME280;26270;34.428;-119.710;2023-02-16T12:33:51;102109.26;;;6.30;47.52
40570;BME280;26270;34.428;-119.710;2023-02-16T12:36:37;102107.84;;;6.49;47.52
40570;BME280;26270;34.428;-119.710;2023-02-16T12:39:16;102112.71;;;6.53;47.51
40570;BME280;26270;34.428;-119.710;2023-02-16T12:41:54;102103.03;;;6.40;46.77
40570;BME280;26270;34.428;-119.710;2023-02-16T12:44:31;102118.42;;;6.47;46.84
40570;BME280;26270;34.428;-119.710;2023-02-16T12:47:03;102110.88;;;6.35;46.39